sensor_id;sensor_type;location;lat;lon;timestamp;P1;durP1;ratioP1;P2;durP2;ratioP2
69716;SDS011;65362;46.144;19.666;2022-12-18T00:03:55;32.38;;;22.45;;
69716;SDS011;65362;46.144;19.666;2022-12-18T00:06:24;35.13;;;23.00;;
69716;SDS011;65362;46.144;19.666;2022-12-18T00:08:54;33.95;;;22.83;;
69716;SDS011;65362;46.144;19.666;2022-12-18T00:11:24;31.80;;;22.55;;
69716;SDS011;65362;46.144;19.666;2022-12-18T00:13:53;31.63;;;22.15;;
69716;SDS011;65362;46.144;19.666;2022-12-18T00:16:23;36.58;;;24.48;;
69716;SDS011;65362;46.144;19.666;2022-12-18T00:18:52;34.58;;;23.38;;
69716;SDS011;65362;46.144;19.666;2022-12-18T00:21:22;34.60;;;23.70;;
69716;SDS011;65362;46.144;19.666;2022-12-18T00:23:49;35.10;;;23.95;;
69716;SDS011;65362;46.144;19.666;2022-12-18T00:26:27;34.85;;;23.90;;
69716;SDS011;65362;46.144;19.666;2022-12-18T00:29:00;34.15;;;23.38;;
69716;SDS011;65362;46.144;19.666;2022-12-18T00:31:31;36.35;;;25.15;;
69716;SDS011;65362;46.144;19.666;2022-12-18T00:34:00;36.22;;;23.58;;
69716;SDS011;65362;46.144;19.666;2022-12-18T00:36:29;37.08;;;24.77;;
69716;SDS011;65362;46.144;19.666;2022-12-18T00:39:00;36.50;;;24.23;;
69716;SDS011;65362;46.144;19.666;2022-12-18T00:41:28;36.95;;;25.00;;
69716;SDS011;65362;46.144;19.666;2022-12-18T00:44:16;33.60;;;23.83;;
69716;SDS011;65362;46.144;19.666;2022-12-18T00:46:45;39.90;;;26.05;;
69716;SDS011;65362;46.144;19.666;2022-12-18T00:49:15;34.33;;;24.15;;
69716;SDS011;65362;46.144;19.666;2022-12-18T00:51:47;36.28;;;24.27;;
69716;SDS011;65362;46.144;19.666;2022-12-18T00:54:15;36.45;;;25.33;;
69716;SDS011;65362;46.144;19.666;2022-12-18T00:56:44;38.97;;;25.38;;
69716;SDS011;65362;46.144;19.666;2022-12-18T00:59:15;38.15;;;25.48;;
69716;SDS011;65362;46.144;19.666;2022-12-18T01:01:44;36.72;;;25.45;;
69716;SDS011;65362;46.144;19.666;2022-12-18T01:04:13;38.42;;;25.67;;
69716;SDS011;65362;46.144;19.666;2022-12-18T01:06:44;36.47;;;24.80;;
69716;SDS011;65362;46.144;19.666;2022-12-18T01:09:12;37.13;;;25.67;;
69716;SDS011;65362;46.144;19.666;2022-12-18T01:11:41;36.90;;;25.30;;
69716;SDS011;65362;46.144;19.666;2022-12-18T01:14:10;39.50;;;26.58;;
69716;SDS011;65362;46.144;19.666;2022-12-18T01:16:38;37.35;;;25.02;;
69716;SDS011;65362;46.144;19.666;2022-12-18T01:19:05;40.08;;;27.08;;
69716;SDS011;65362;46.144;19.666;2022-12-18T01:21:33;36.55;;;25.40;;
69716;SDS011;65362;46.144;19.666;2022-12-18T01:24:03;38.42;;;26.15;;
69716;SDS011;65362;46.144;19.666;2022-12-18T01:26:31;37.47;;;25.25;;
69716;SDS011;65362;46.144;19.666;2022-12-18T01:28:59;36.45;;;25.15;;
69716;SDS011;65362;46.144;19.666;2022-12-18T01:31:28;38.10;;;24.92;;
69716;SDS011;65362;46.144;19.666;2022-12-18T01:33:57;37.50;;;25.63;;
69716;SDS011;65362;46.144;19.666;2022-12-18T01:36:29;37.13;;;24.73;;
69716;SDS011;65362;46.144;19.666;2022-12-18T01:39:02;34.30;;;23.98;;
69716;SDS011;65362;46.144;19.666;2022-12-18T01:41:32;36.05;;;25.30;;
69716;SDS011;65362;46.144;19.666;2022-12-18T01:49:55;34.28;;;24.10;;
69716;SDS011;65362;46.144;19.666;2022-12-18T01:52:24;36.60;;;24.40;;
69716;SDS011;65362;46.144;19.666;2022-12-18T01:54:55;32.83;;;23.80;;
69716;SDS011;65362;46.144;19.666;2022-12-18T01:57:26;35.85;;;23.95;;
69716;SDS011;65362;46.144;19.666;2022-12-18T01:59:56;35.17;;;23.27;;
69716;SDS011;65362;46.144;19.666;2022-12-18T02:02:40;34.22;;;23.42;;
69716;SDS011;65362;46.144;19.666;2022-12-18T02:05:09;33.30;;;23.83;;
69716;SDS011;65362;46.144;19.666;2022-12-18T02:07:43;35.22;;;23.75;;
69716;SDS011;65362;46.144;19.666;2022-12-18T02:13:19;33.03;;;23.60;;
69716;SDS011;65362;46.144;19.666;2022-12-18T02:16:24;31.55;;;22.50;;
69716;SDS011;65362;46.144;19.666;2022-12-18T02:18:57;31.40;;;22.25;;
69716;SDS011;65362;46.144;19.666;2022-12-18T02:21:51;32.70;;;21.90;;
69716;SDS011;65362;46.144;19.666;2022-12-18T02:27:12;29.92;;;21.48;;
69716;SDS011;65362;46.144;19.666;2022-12-18T02:29:44;31.63;;;22.40;;
69716;SDS011;65362;46.144;19.666;2022-12-18T02:32:28;30.70;;;21.83;;
69716;SDS011;65362;46.144;19.666;2022-12-18T02:34:59;31.70;;;20.92;;
69716;SDS011;65362;46.144;19.666;2022-12-18T02:37:31;28.65;;;20.85;;
69716;SDS011;65362;46.144;19.666;2022-12-18T02:40:03;30.40;;;21.90;;
69716;SDS011;65362;46.144;19.666;2022-12-18T02:42:34;29.83;;;21.67;;
69716;SDS011;65362;46.144;19.666;2022-12-18T02:45:04;28.88;;;20.88;;
69716;SDS011;65362;46.144;19.666;2022-12-18T02:47:39;28.25;;;20.65;;
69716;SDS011;65362;46.144;19.666;2022-12-18T02:58:05;27.67;;;19.25;;
69716;SDS011;65362;46.144;19.666;2022-12-18T03:01:01;26.23;;;19.15;;
69716;SDS011;65362;46.144;19.666;2022-12-18T03:03:42;27.53;;;19.13;;
69716;SDS011;65362;46.144;19.666;2022-12-18T03:11:24;25.60;;;18.25;;
69716;SDS011;65362;46.144;19.666;2022-12-18T03:14:15;24.17;;;18.35;;
69716;SDS011;65362;46.144;19.666;2022-12-18T03:16:45;26.80;;;18.73;;
69716;SDS011;65362;46.144;19.666;2022-12-18T03:19:18;25.40;;;18.60;;
69716;SDS011;65362;46.144;19.666;2022-12-18T03:21:53;22.48;;;17.15;;
69716;SDS011;65362;46.144;19.666;2022-12-18T03:24:24;25.38;;;17.50;;
69716;SDS011;65362;46.144;19.666;2022-12-18T03:27:06;26.20;;;18.15;;
69716;SDS011;65362;46.144;19.666;2022-12-18T03:32:32;24.23;;;16.85;;
69716;SDS011;65362;46.144;19.666;2022-12-18T03:35:06;24.15;;;16.90;;
69716;SDS011;65362;46.144;19.666;2022-12-18T03:37:37;23.77;;;16.88;;
69716;SDS011;65362;46.144;19.666;2022-12-18T03:40:07;24.23;;;17.55;;
69716;SDS011;65362;46.144;19.666;2022-12-18T03:45:11;22.55;;;16.83;;
69716;SDS011;65362;46.144;19.666;2022-12-18T03:47:55;22.95;;;16.13;;
69716;SDS011;65362;46.144;19.666;2022-12-18T03:53:32;21.63;;;16.15;;
69716;SDS011;65362;46.144;19.666;2022-12-18T03:56:15;19.98;;;15.65;;
69716;SDS011;65362;46.144;19.666;2022-12-18T03:58:44;21.38;;;16.55;;
69716;SDS011;65362;46.144;19.666;2022-12-18T04:01:18;23.25;;;16.30;;
69716;SDS011;65362;46.144;19.666;2022-12-18T04:03:50;20.33;;;15.10;;
69716;SDS011;65362;46.144;19.666;2022-12-18T04:06:20;21.48;;;16.48;;
69716;SDS011;65362;46.144;19.666;2022-12-18T04:08:48;20.30;;;15.60;;
69716;SDS011;65362;46.144;19.666;2022-12-18T04:11:20;18.95;;;15.02;;
69716;SDS011;65362;46.144;19.666;2022-12-18T04:13:48;19.83;;;15.15;;
69716;SDS011;65362;46.144;19.666;2022-12-18T04:16:22;19.52;;;14.95;;
69716;SDS011;65362;46.144;19.666;2022-12-18T04:18:53;20.77;;;15.00;;
69716;SDS011;65362;46.144;19.666;2022-12-18T04:21:23;20.30;;;14.50;;
69716;SDS011;65362;46.144;19.666;2022-12-18T04:23:51;19.00;;;14.65;;
69716;SDS011;65362;46.144;19.666;2022-12-18T04:26:21;18.23;;;14.82;;
69716;SDS011;65362;46.144;19.666;2022-12-18T04:29:07;19.40;;;14.35;;
69716;SDS011;65362;46.144;19.666;2022-12-18T04:31:35;17.70;;;14.30;;
69716;SDS011;65362;46.144;19.666;2022-12-18T04:34:03;19.50;;;14.45;;
69716;SDS011;65362;46.144;19.666;2022-12-18T04:36:36;18.92;;;14.02;;
69716;SDS011;65362;46.144;19.666;2022-12-18T04:39:04;18.80;;;14.32;;
69716;SDS011;65362;46.144;19.666;2022-12-18T04:41:32;18.25;;;14.38;;
69716;SDS011;65362;46.144;19.666;2022-12-18T04:44:00;17.35;;;13.98;;
69716;SDS011;65362;46.144;19.666;2022-12-18T04:46:28;16.58;;;13.75;;
69716;SDS011;65362;46.144;19.666;2022-12-18T04:48:55;17.77;;;13.93;;
69716;SDS011;65362;46.144;19.666;2022-12-18T04:51:23;17.30;;;13.40;;
69716;SDS011;65362;46.144;19.666;2022-12-18T04:53:53;19.05;;;14.32;;
69716;SDS011;65362;46.144;19.666;2022-12-18T04:56:20;17.30;;;13.48;;
69716;SDS011;65362;46.144;19.666;2022-12-18T04:58:49;18.55;;;14.10;;
69716;SDS011;65362;46.144;19.666;2022-12-18T05:01:17;16.30;;;13.55;;
69716;SDS011;65362;46.144;19.666;2022-12-18T05:03:45;20.02;;;13.45;;
69716;SDS011;65362;46.144;19.666;2022-12-18T05:06:13;17.50;;;13.82;;
69716;SDS011;65362;46.144;19.666;2022-12-18T05:08:41;17.10;;;13.50;;
69716;SDS011;65362;46.144;19.666;2022-12-18T05:11:09;16.67;;;13.32;;
69716;SDS011;65362;46.144;19.666;2022-12-18T05:13:39;17.95;;;13.73;;
69716;SDS011;65362;46.144;19.666;2022-12-18T05:16:07;15.35;;;12.40;;
69716;SDS011;65362;46.144;19.666;2022-12-18T05:18:35;16.70;;;12.60;;
69716;SDS011;65362;46.144;19.666;2022-12-18T05:21:04;15.63;;;12.57;;
69716;SDS011;65362;46.144;19.666;2022-12-18T05:23:32;17.98;;;13.65;;
69716;SDS011;65362;46.144;19.666;2022-12-18T05:26:03;16.23;;;12.57;;
69716;SDS011;65362;46.144;19.666;2022-12-18T05:28:33;16.75;;;13.07;;
69716;SDS011;65362;46.144;19.666;2022-12-18T05:31:02;15.75;;;12.57;;
69716;SDS011;65362;46.144;19.666;2022-12-18T05:33:32;16.20;;;12.80;;
69716;SDS011;65362;46.144;19.666;2022-12-18T05:36:00;17.55;;;12.65;;
69716;SDS011;65362;46.144;19.666;2022-12-18T05:38:29;16.15;;;12.73;;
69716;SDS011;65362;46.144;19.666;2022-12-18T05:40:58;15.57;;;12.38;;
69716;SDS011;65362;46.144;19.666;2022-12-18T05:43:26;15.52;;;12.23;;
69716;SDS011;65362;46.144;19.666;2022-12-18T05:45:54;17.60;;;13.18;;
69716;SDS011;65362;46.144;19.666;2022-12-18T05:48:23;15.88;;;12.82;;
69716;SDS011;65362;46.144;19.666;2022-12-18T05:50:50;16.17;;;12.32;;
69716;SDS011;65362;46.144;19.666;2022-12-18T05:53:19;15.60;;;12.13;;
69716;SDS011;65362;46.144;19.666;2022-12-18T05:55:47;16.75;;;12.75;;
69716;SDS011;65362;46.144;19.666;2022-12-18T05:58:15;16.40;;;12.65;;
69716;SDS011;65362;46.144;19.666;2022-12-18T06:00:44;17.15;;;12.45;;
69716;SDS011;65362;46.144;19.666;2022-12-18T06:03:12;15.73;;;12.20;;
69716;SDS011;65362;46.144;19.666;2022-12-18T06:05:44;15.50;;;12.38;;
69716;SDS011;65362;46.144;19.666;2022-12-18T06:08:12;16.70;;;12.68;;
69716;SDS011;65362;46.144;19.666;2022-12-18T06:10:40;14.27;;;11.98;;
69716;SDS011;65362;46.144;19.666;2022-12-18T06:13:08;16.50;;;12.20;;
69716;SDS011;65362;46.144;19.666;2022-12-18T06:15:36;16.55;;;12.18;;
69716;SDS011;65362;46.144;19.666;2022-12-18T06:18:04;14.50;;;11.68;;
69716;SDS011;65362;46.144;19.666;2022-12-18T06:20:31;13.75;;;11.77;;
69716;SDS011;65362;46.144;19.666;2022-12-18T06:23:00;14.45;;;11.70;;
69716;SDS011;65362;46.144;19.666;2022-12-18T06:25:27;17.00;;;12.85;;
69716;SDS011;65362;46.144;19.666;2022-12-18T06:27:55;15.88;;;12.88;;
69716;SDS011;65362;46.144;19.666;2022-12-18T06:30:22;15.75;;;12.43;;
69716;SDS011;65362;46.144;19.666;2022-12-18T06:32:50;15.77;;;11.95;;
69716;SDS011;65362;46.144;19.666;2022-12-18T06:35:23;15.25;;;12.10;;
69716;SDS011;65362;46.144;19.666;2022-12-18T06:37:50;15.30;;;12.50;;
69716;SDS011;65362;46.144;19.666;2022-12-18T06:40:18;14.45;;;11.57;;
69716;SDS011;65362;46.144;19.666;2022-12-18T06:42:46;15.70;;;11.38;;
69716;SDS011;65362;46.144;19.666;2022-12-18T06:45:13;14.85;;;12.00;;
69716;SDS011;65362;46.144;19.666;2022-12-18T06:47:41;15.70;;;12.43;;
69716;SDS011;65362;46.144;19.666;2022-12-18T06:50:08;14.63;;;11.55;;
69716;SDS011;65362;46.144;19.666;2022-12-18T06:52:36;14.38;;;11.05;;
69716;SDS011;65362;46.144;19.666;2022-12-18T06:55:04;15.75;;;12.63;;
69716;SDS011;65362;46.144;19.666;2022-12-18T06:57:32;15.85;;;11.93;;
69716;SDS011;65362;46.144;19.666;2022-12-18T06:59:59;14.32;;;10.93;;
69716;SDS011;65362;46.144;19.666;2022-12-18T07:02:27;15.05;;;11.38;;
69716;SDS011;65362;46.144;19.666;2022-12-18T07:04:55;14.77;;;11.63;;
69716;SDS011;65362;46.144;19.666;2022-12-18T07:07:22;16.10;;;11.70;;
69716;SDS011;65362;46.144;19.666;2022-12-18T07:09:50;15.98;;;11.90;;
69716;SDS011;65362;46.144;19.666;2022-12-18T07:12:17;16.13;;;11.35;;
69716;SDS011;65362;46.144;19.666;2022-12-18T07:14:45;13.77;;;11.63;;
69716;SDS011;65362;46.144;19.666;2022-12-18T07:17:13;12.93;;;10.98;;
69716;SDS011;65362;46.144;19.666;2022-12-18T07:19:40;15.45;;;12.00;;
69716;SDS011;65362;46.144;19.666;2022-12-18T07:22:07;15.00;;;11.88;;
69716;SDS011;65362;46.144;19.666;2022-12-18T07:24:35;14.50;;;12.00;;
69716;SDS011;65362;46.144;19.666;2022-12-18T07:27:02;15.60;;;11.80;;
69716;SDS011;65362;46.144;19.666;2022-12-18T07:29:30;13.88;;;11.50;;
69716;SDS011;65362;46.144;19.666;2022-12-18T07:31:58;14.40;;;11.98;;
69716;SDS011;65362;46.144;19.666;2022-12-18T07:34:25;18.27;;;11.98;;
69716;SDS011;65362;46.144;19.666;2022-12-18T07:36:53;14.52;;;12.18;;
69716;SDS011;65362;46.144;19.666;2022-12-18T07:39:20;15.85;;;12.65;;
69716;SDS011;65362;46.144;19.666;2022-12-18T07:41:48;16.25;;;12.18;;
69716;SDS011;65362;46.144;19.666;2022-12-18T07:44:35;16.27;;;12.05;;
69716;SDS011;65362;46.144;19.666;2022-12-18T07:47:03;13.85;;;12.10;;
69716;SDS011;65362;46.144;19.666;2022-12-18T07:49:38;20.25;;;12.48;;
69716;SDS011;65362;46.144;19.666;2022-12-18T07:52:06;17.55;;;12.77;;
69716;SDS011;65362;46.144;19.666;2022-12-18T07:54:33;14.63;;;12.60;;
69716;SDS011;65362;46.144;19.666;2022-12-18T07:57:01;15.63;;;11.98;;
69716;SDS011;65362;46.144;19.666;2022-12-18T07:59:28;19.00;;;12.20;;
69716;SDS011;65362;46.144;19.666;2022-12-18T08:01:56;16.15;;;11.90;;
69716;SDS011;65362;46.144;19.666;2022-12-18T08:04:24;14.68;;;11.45;;
69716;SDS011;65362;46.144;19.666;2022-12-18T08:06:52;15.00;;;12.18;;
69716;SDS011;65362;46.144;19.666;2022-12-18T08:09:20;15.48;;;12.48;;
69716;SDS011;65362;46.144;19.666;2022-12-18T08:11:47;20.77;;;12.07;;
69716;SDS011;65362;46.144;19.666;2022-12-18T08:14:14;13.63;;;11.45;;
69716;SDS011;65362;46.144;19.666;2022-12-18T08:16:42;16.77;;;11.55;;
69716;SDS011;65362;46.144;19.666;2022-12-18T08:19:10;15.63;;;12.00;;
69716;SDS011;65362;46.144;19.666;2022-12-18T08:21:38;17.88;;;11.85;;
69716;SDS011;65362;46.144;19.666;2022-12-18T08:24:08;16.55;;;12.25;;
69716;SDS011;65362;46.144;19.666;2022-12-18T08:26:36;16.05;;;12.15;;
69716;SDS011;65362;46.144;19.666;2022-12-18T08:29:04;15.50;;;11.60;;
69716;SDS011;65362;46.144;19.666;2022-12-18T08:31:31;17.08;;;12.20;;
69716;SDS011;65362;46.144;19.666;2022-12-18T08:34:00;15.73;;;11.95;;
69716;SDS011;65362;46.144;19.666;2022-12-18T08:36:27;15.02;;;11.40;;
69716;SDS011;65362;46.144;19.666;2022-12-18T08:38:55;15.30;;;11.68;;
69716;SDS011;65362;46.144;19.666;2022-12-18T08:41:25;15.43;;;12.15;;
69716;SDS011;65362;46.144;19.666;2022-12-18T08:43:53;16.88;;;11.80;;
69716;SDS011;65362;46.144;19.666;2022-12-18T08:46:41;15.87;;;11.77;;
69716;SDS011;65362;46.144;19.666;2022-12-18T08:49:10;16.02;;;11.45;;
69716;SDS011;65362;46.144;19.666;2022-12-18T08:51:38;14.48;;;11.77;;
69716;SDS011;65362;46.144;19.666;2022-12-18T08:54:07;14.95;;;11.68;;
69716;SDS011;65362;46.144;19.666;2022-12-18T08:56:34;15.63;;;11.70;;
69716;SDS011;65362;46.144;19.666;2022-12-18T08:59:02;15.23;;;12.07;;
69716;SDS011;65362;46.144;19.666;2022-12-18T09:01:30;15.98;;;11.90;;
69716;SDS011;65362;46.144;19.666;2022-12-18T09:03:58;16.75;;;12.80;;
69716;SDS011;65362;46.144;19.666;2022-12-18T09:06:25;18.40;;;12.80;;
69716;SDS011;65362;46.144;19.666;2022-12-18T09:08:53;18.30;;;11.88;;
69716;SDS011;65362;46.144;19.666;2022-12-18T09:11:22;16.20;;;11.95;;
69716;SDS011;65362;46.144;19.666;2022-12-18T09:13:51;16.10;;;11.98;;
69716;SDS011;65362;46.144;19.666;2022-12-18T09:16:21;13.25;;;11.07;;
69716;SDS011;65362;46.144;19.666;2022-12-18T09:18:58;16.45;;;11.95;;
69716;SDS011;65362;46.144;19.666;2022-12-18T09:21:27;15.32;;;11.43;;
69716;SDS011;65362;46.144;19.666;2022-12-18T09:23:58;15.85;;;11.68;;
69716;SDS011;65362;46.144;19.666;2022-12-18T09:26:26;14.48;;;11.38;;
69716;SDS011;65362;46.144;19.666;2022-12-18T09:28:54;15.32;;;12.10;;
69716;SDS011;65362;46.144;19.666;2022-12-18T09:31:23;18.60;;;11.82;;
69716;SDS011;65362;46.144;19.666;2022-12-18T09:33:51;15.38;;;12.02;;
69716;SDS011;65362;46.144;19.666;2022-12-18T09:36:19;17.50;;;12.65;;
69716;SDS011;65362;46.144;19.666;2022-12-18T09:38:47;16.73;;;11.68;;
69716;SDS011;65362;46.144;19.666;2022-12-18T09:46:49;15.88;;;11.93;;
69716;SDS011;65362;46.144;19.666;2022-12-18T09:49:23;19.65;;;12.10;;
69716;SDS011;65362;46.144;19.666;2022-12-18T09:54:34;16.10;;;11.00;;
69716;SDS011;65362;46.144;19.666;2022-12-18T09:57:05;15.95;;;12.18;;
69716;SDS011;65362;46.144;19.666;2022-12-18T09:59:37;17.45;;;12.45;;
69716;SDS011;65362;46.144;19.666;2022-12-18T10:02:20;16.70;;;12.23;;
69716;SDS011;65362;46.144;19.666;2022-12-18T10:05:02;14.30;;;11.27;;
69716;SDS011;65362;46.144;19.666;2022-12-18T10:13:02;16.00;;;12.32;;
69716;SDS011;65362;46.144;19.666;2022-12-18T10:21:30;16.13;;;11.95;;
69716;SDS011;65362;46.144;19.666;2022-12-18T10:27:15;15.95;;;11.95;;
69716;SDS011;65362;46.144;19.666;2022-12-18T10:29:45;15.50;;;12.10;;
69716;SDS011;65362;46.144;19.666;2022-12-18T10:32:17;15.90;;;11.75;;
69716;SDS011;65362;46.144;19.666;2022-12-18T10:34:48;15.18;;;11.88;;
69716;SDS011;65362;46.144;19.666;2022-12-18T10:37:25;15.40;;;12.48;;
69716;SDS011;65362;46.144;19.666;2022-12-18T10:43:02;15.75;;;11.55;;
69716;SDS011;65362;46.144;19.666;2022-12-18T10:45:41;14.93;;;11.10;;
69716;SDS011;65362;46.144;19.666;2022-12-18T10:48:19;15.57;;;12.00;;
69716;SDS011;65362;46.144;19.666;2022-12-18T10:50:49;14.30;;;11.57;;
69716;SDS011;65362;46.144;19.666;2022-12-18T10:53:39;14.63;;;11.32;;
69716;SDS011;65362;46.144;19.666;2022-12-18T10:56:09;18.00;;;11.60;;
69716;SDS011;65362;46.144;19.666;2022-12-18T10:58:37;15.48;;;11.63;;
69716;SDS011;65362;46.144;19.666;2022-12-18T11:01:08;14.73;;;12.02;;
69716;SDS011;65362;46.144;19.666;2022-12-18T11:03:43;17.45;;;11.90;;
69716;SDS011;65362;46.144;19.666;2022-12-18T11:06:32;20.42;;;12.18;;
69716;SDS011;65362;46.144;19.666;2022-12-18T11:09:02;17.55;;;11.75;;
69716;SDS011;65362;46.144;19.666;2022-12-18T11:11:41;15.45;;;12.40;;
69716;SDS011;65362;46.144;19.666;2022-12-18T11:14:26;15.73;;;11.82;;
69716;SDS011;65362;46.144;19.666;2022-12-18T11:16:57;15.48;;;12.15;;
69716;SDS011;65362;46.144;19.666;2022-12-18T11:19:52;15.85;;;11.55;;
69716;SDS011;65362;46.144;19.666;2022-12-18T11:22:28;18.98;;;11.85;;
69716;SDS011;65362;46.144;19.666;2022-12-18T11:24:59;16.10;;;11.90;;
69716;SDS011;65362;46.144;19.666;2022-12-18T11:27:54;14.68;;;11.38;;
69716;SDS011;65362;46.144;19.666;2022-12-18T11:30:36;15.27;;;11.32;;
69716;SDS011;65362;46.144;19.666;2022-12-18T11:33:21;18.13;;;12.02;;
69716;SDS011;65362;46.144;19.666;2022-12-18T11:35:49;14.57;;;11.20;;
69716;SDS011;65362;46.144;19.666;2022-12-18T11:38:21;15.98;;;11.40;;
69716;SDS011;65362;46.144;19.666;2022-12-18T11:40:58;15.55;;;11.45;;
69716;SDS011;65362;46.144;19.666;2022-12-18T11:43:35;15.15;;;11.60;;
69716;SDS011;65362;46.144;19.666;2022-12-18T11:46:15;13.55;;;11.05;;
69716;SDS011;65362;46.144;19.666;2022-12-18T11:48:49;15.93;;;11.25;;
69716;SDS011;65362;46.144;19.666;2022-12-18T11:51:41;13.57;;;10.85;;
69716;SDS011;65362;46.144;19.666;2022-12-18T11:54:14;15.60;;;11.95;;
69716;SDS011;65362;46.144;19.666;2022-12-18T11:56:45;14.70;;;11.02;;
69716;SDS011;65362;46.144;19.666;2022-12-18T12:02:47;13.35;;;10.45;;
69716;SDS011;65362;46.144;19.666;2022-12-18T12:08:47;14.50;;;11.65;;
69716;SDS011;65362;46.144;19.666;2022-12-18T12:11:35;15.75;;;11.63;;
69716;SDS011;65362;46.144;19.666;2022-12-18T12:14:15;13.73;;;11.10;;
69716;SDS011;65362;46.144;19.666;2022-12-18T12:22:42;13.35;;;10.85;;
69716;SDS011;65362;46.144;19.666;2022-12-18T12:39:16;13.77;;;10.63;;
69716;SDS011;65362;46.144;19.666;2022-12-18T12:41:50;12.95;;;10.85;;
69716;SDS011;65362;46.144;19.666;2022-12-18T12:44:42;14.43;;;10.95;;
69716;SDS011;65362;46.144;19.666;2022-12-18T12:47:21;13.70;;;10.68;;
69716;SDS011;65362;46.144;19.666;2022-12-18T12:49:53;14.30;;;10.98;;
69716;SDS011;65362;46.144;19.666;2022-12-18T12:52:28;13.65;;;10.85;;
69716;SDS011;65362;46.144;19.666;2022-12-18T12:54:57;13.20;;;10.38;;
69716;SDS011;65362;46.144;19.666;2022-12-18T12:57:31;14.43;;;10.73;;
69716;SDS011;65362;46.144;19.666;2022-12-18T13:02:47;13.95;;;10.00;;
69716;SDS011;65362;46.144;19.666;2022-12-18T13:08:27;12.45;;;10.05;;
69716;SDS011;65362;46.144;19.666;2022-12-18T13:11:01;14.70;;;10.93;;
69716;SDS011;65362;46.144;19.666;2022-12-18T13:14:10;13.13;;;10.27;;
69716;SDS011;65362;46.144;19.666;2022-12-18T13:16:48;14.35;;;10.68;;
69716;SDS011;65362;46.144;19.666;2022-12-18T13:19:23;13.95;;;10.07;;
69716;SDS011;65362;46.144;19.666;2022-12-18T13:21:53;14.30;;;10.88;;
69716;SDS011;65362;46.144;19.666;2022-12-18T13:24:27;12.38;;;9.90;;
69716;SDS011;65362;46.144;19.666;2022-12-18T13:26:58;12.70;;;10.38;;
69716;SDS011;65362;46.144;19.666;2022-12-18T13:29:42;13.35;;;10.50;;
69716;SDS011;65362;46.144;19.666;2022-12-18T13:32:21;12.57;;;10.02;;
69716;SDS011;65362;46.144;19.666;2022-12-18T13:37:52;14.93;;;10.98;;
69716;SDS011;65362;46.144;19.666;2022-12-18T13:46:06;13.77;;;10.20;;
69716;SDS011;65362;46.144;19.666;2022-12-18T13:51:24;16.48;;;10.15;;
69716;SDS011;65362;46.144;19.666;2022-12-18T13:56:33;12.65;;;9.90;;
69716;SDS011;65362;46.144;19.666;2022-12-18T13:59:11;13.27;;;10.13;;
69716;SDS011;65362;46.144;19.666;2022-12-18T14:01:44;11.93;;;9.63;;
69716;SDS011;65362;46.144;19.666;2022-12-18T14:04:21;12.85;;;9.90;;
69716;SDS011;65362;46.144;19.666;2022-12-18T14:09:31;12.32;;;9.73;;
69716;SDS011;65362;46.144;19.666;2022-12-18T14:12:03;16.55;;;10.85;;
69716;SDS011;65362;46.144;19.666;2022-12-18T14:14:52;14.75;;;10.15;;
69716;SDS011;65362;46.144;19.666;2022-12-18T14:17:21;14.85;;;10.30;;
69716;SDS011;65362;46.144;19.666;2022-12-18T14:19:50;12.68;;;9.80;;
69716;SDS011;65362;46.144;19.666;2022-12-18T14:22:19;14.07;;;10.18;;
69716;SDS011;65362;46.144;19.666;2022-12-18T14:27:43;12.95;;;10.00;;
69716;SDS011;65362;46.144;19.666;2022-12-18T14:33:01;14.38;;;10.65;;
69716;SDS011;65362;46.144;19.666;2022-12-18T14:35:28;14.52;;;10.05;;
69716;SDS011;65362;46.144;19.666;2022-12-18T14:41:04;14.30;;;10.85;;
69716;SDS011;65362;46.144;19.666;2022-12-18T14:43:34;15.65;;;10.57;;
69716;SDS011;65362;46.144;19.666;2022-12-18T14:49:45;13.20;;;10.80;;
69716;SDS011;65362;46.144;19.666;2022-12-18T14:51:54;14.30;;;10.60;;
69716;SDS011;65362;46.144;19.666;2022-12-18T14:54:22;15.05;;;11.30;;
69716;SDS011;65362;46.144;19.666;2022-12-18T14:57:04;15.60;;;10.85;;
69716;SDS011;65362;46.144;19.666;2022-12-18T14:59:41;14.90;;;11.13;;
69716;SDS011;65362;46.144;19.666;2022-12-18T15:02:20;14.40;;;11.00;;
69716;SDS011;65362;46.144;19.666;2022-12-18T15:05:16;17.85;;;11.55;;
69716;SDS011;65362;46.144;19.666;2022-12-18T15:07:45;15.98;;;11.65;;
69716;SDS011;65362;46.144;19.666;2022-12-18T15:10:30;14.45;;;11.85;;
69716;SDS011;65362;46.144;19.666;2022-12-18T15:20:45;15.98;;;11.65;;
69716;SDS011;65362;46.144;19.666;2022-12-18T15:25:56;16.87;;;12.30;;
69716;SDS011;65362;46.144;19.666;2022-12-18T15:33:41;16.17;;;12.70;;
69716;SDS011;65362;46.144;19.666;2022-12-18T15:36:13;16.48;;;12.65;;
69716;SDS011;65362;46.144;19.666;2022-12-18T15:38:47;18.42;;;13.55;;
69716;SDS011;65362;46.144;19.666;2022-12-18T15:41:19;18.67;;;13.38;;
69716;SDS011;65362;46.144;19.666;2022-12-18T15:43:51;17.10;;;12.73;;
69716;SDS011;65362;46.144;19.666;2022-12-18T15:46:21;18.15;;;13.55;;
69716;SDS011;65362;46.144;19.666;2022-12-18T15:48:51;17.92;;;13.38;;
69716;SDS011;65362;46.144;19.666;2022-12-18T15:51:29;18.40;;;13.73;;
69716;SDS011;65362;46.144;19.666;2022-12-18T15:54:02;18.90;;;14.32;;
69716;SDS011;65362;46.144;19.666;2022-12-18T15:56:31;19.67;;;14.02;;
69716;SDS011;65362;46.144;19.666;2022-12-18T15:59:18;18.38;;;13.75;;
69716;SDS011;65362;46.144;19.666;2022-12-18T16:01:47;19.75;;;14.30;;
69716;SDS011;65362;46.144;19.666;2022-12-18T16:04:17;19.75;;;14.98;;
69716;SDS011;65362;46.144;19.666;2022-12-18T16:06:49;21.83;;;16.60;;
69716;SDS011;65362;46.144;19.666;2022-12-18T16:09:36;20.40;;;15.43;;
69716;SDS011;65362;46.144;19.666;2022-12-18T16:12:26;22.58;;;16.88;;
69716;SDS011;65362;46.144;19.666;2022-12-18T16:14:53;21.58;;;16.25;;
69716;SDS011;65362;46.144;19.666;2022-12-18T16:17:21;22.10;;;16.17;;
69716;SDS011;65362;46.144;19.666;2022-12-18T16:19:48;22.00;;;16.20;;
69716;SDS011;65362;46.144;19.666;2022-12-18T16:22:25;20.50;;;15.88;;
69716;SDS011;65362;46.144;19.666;2022-12-18T16:24:55;22.10;;;17.13;;
69716;SDS011;65362;46.144;19.666;2022-12-18T16:27:24;24.65;;;17.25;;
69716;SDS011;65362;46.144;19.666;2022-12-18T16:29:52;24.65;;;17.38;;
69716;SDS011;65362;46.144;19.666;2022-12-18T16:32:20;24.02;;;18.23;;
69716;SDS011;65362;46.144;19.666;2022-12-18T16:34:49;24.05;;;17.40;;
69716;SDS011;65362;46.144;19.666;2022-12-18T16:37:16;24.42;;;18.05;;
69716;SDS011;65362;46.144;19.666;2022-12-18T16:39:44;25.40;;;18.45;;
69716;SDS011;65362;46.144;19.666;2022-12-18T16:42:13;22.55;;;17.33;;
69716;SDS011;65362;46.144;19.666;2022-12-18T16:44:43;25.23;;;17.23;;
69716;SDS011;65362;46.144;19.666;2022-12-18T16:47:12;25.45;;;19.45;;
69716;SDS011;65362;46.144;19.666;2022-12-18T16:49:42;25.65;;;19.17;;
69716;SDS011;65362;46.144;19.666;2022-12-18T16:52:12;35.97;;;21.02;;
69716;SDS011;65362;46.144;19.666;2022-12-18T16:54:40;33.13;;;20.83;;